createdAt,value
2022-11-27T00:01:27.343Z,1.95
2022-11-27T00:03:55.329Z,1.96
2022-11-27T00:06:25.845Z,1.97
2022-11-27T00:08:53.109Z,1.98
2022-11-27T00:11:24.562Z,2.00
2022-11-27T00:13:52.411Z,2.03
2022-11-27T00:16:20.770Z,2.03
2022-11-27T00:18:48.454Z,2.07
2022-11-27T00:21:24.311Z,2.08
2022-11-27T00:23:53.022Z,2.04
2022-11-27T00:26:20.186Z,2.05
2022-11-27T00:28:47.416Z,1.99
2022-11-27T00:31:28.697Z,1.99
2022-11-27T00:33:56.833Z,2.00
2022-11-27T00:36:23.860Z,1.98
2022-11-27T00:38:51.196Z,2.01
2022-11-27T00:41:20.763Z,2.04
2022-11-27T00:43:47.935Z,2.07
2022-11-27T00:46:16.653Z,2.08
2022-11-27T00:48:44.522Z,2.07
2022-11-27T00:51:14.720Z,2.08
2022-11-27T00:53:42.265Z,2.05
2022-11-27T00:56:10.481Z,2.05
2022-11-27T00:58:37.380Z,2.05
2022-11-27T01:01:07.623Z,2.04
2022-11-27T01:03:35.388Z,2.04
2022-11-27T01:06:06.662Z,2.05
2022-11-27T01:08:34.720Z,2.06
2022-11-27T01:11:02.401Z,2.09
2022-11-27T01:13:32.509Z,2.08
2022-11-27T01:16:11.843Z,2.10
2022-11-27T01:18:41.241Z,2.10
2022-11-27T01:21:09.120Z,2.06
2022-11-27T01:23:36.203Z,2.07
2022-11-27T01:26:05.687Z,2.19
2022-11-27T01:28:33.652Z,2.19
2022-11-27T01:31:05.726Z,2.13
2022-11-27T01:33:33.265Z,2.14
2022-11-27T01:36:02.546Z,2.13
2022-11-27T01:38:31.074Z,2.14
2022-11-27T01:41:04.313Z,2.16
2022-11-27T01:43:47.961Z,2.15
2022-11-27T01:46:29.654Z,2.16
2022-11-27T01:49:11.513Z,2.16
2022-11-27T01:51:44.654Z,2.13
2022-11-27T01:54:12.128Z,2.14
2022-11-27T01:56:41.946Z,2.14
2022-11-27T01:59:08.888Z,2.16
2022-11-27T02:01:35.795Z,2.16
2022-11-27T02:04:03.300Z,2.17
2022-11-27T02:06:30.244Z,2.18
2022-11-27T02:08:57.483Z,2.18
2022-11-27T02:11:29.906Z,2.19
2022-11-27T02:14:11.238Z,2.18
2022-11-27T02:16:53.124Z,2.22
2022-11-27T02:19:28.122Z,2.20
2022-11-27T02:22:05.396Z,2.26
2022-11-27T02:24:50.761Z,2.28
2022-11-27T02:27:42.394Z,2.29
2022-11-27T02:30:10.381Z,2.30
2022-11-27T02:32:43.825Z,2.28
2022-11-27T02:35:37.512Z,2.29
2022-11-27T02:38:13.489Z,2.25
2022-11-27T02:40:45.648Z,2.21
2022-11-27T02:43:18.376Z,2.18
2022-11-27T02:45:48.959Z,2.16
2022-11-27T02:48:19.772Z,2.15
2022-11-27T02:50:48.699Z,2.12
2022-11-27T02:53:21.259Z,2.10
2022-11-27T02:55:50.641Z,2.09
2022-11-27T02:58:21.920Z,2.02
2022-11-27T03:00:50.683Z,2.01
2022-11-27T03:03:23.527Z,1.95
2022-11-27T03:05:54.206Z,1.89
2022-11-27T03:08:32.405Z,1.85
2022-11-27T03:11:25.756Z,1.84
2022-11-27T03:13:58.618Z,1.73
2022-11-27T03:17:05.170Z,1.67
2022-11-27T03:19:44.203Z,1.62
2022-11-27T03:22:11.863Z,1.55
2022-11-27T03:24:39.410Z,1.52
2022-11-27T03:27:06.974Z,1.48
2022-11-27T03:29:38.669Z,1.43
2022-11-27T03:32:06.142Z,1.31
2022-11-27T03:34:34.165Z,1.24
2022-11-27T03:37:01.533Z,1.24
2022-11-27T03:39:29.482Z,1.24
2022-11-27T03:42:17.865Z,1.28
2022-11-27T03:45:12.267Z,1.33
2022-11-27T03:47:57.983Z,1.38
2022-11-27T03:50:30.831Z,1.41
2022-11-27T03:53:07.980Z,1.43
2022-11-27T03:56:09.605Z,1.40
2022-11-27T03:58:43.675Z,1.33
2022-11-27T04:01:14.568Z,1.31
2022-11-27T04:03:41.681Z,1.25
2022-11-27T04:06:08.714Z,1.22
2022-11-27T04:08:35.585Z,1.16
2022-11-27T04:11:02.569Z,1.12
2022-11-27T04:13:29.396Z,1.12
2022-11-27T04:15:56.322Z,1.13
2022-11-27T04:18:23.237Z,1.11
2022-11-27T04:20:50.184Z,1.15
2022-11-27T04:23:17.065Z,1.14
2022-11-27T04:25:44.081Z,1.15
2022-11-27T04:28:11.368Z,1.14
2022-11-27T04:30:38.231Z,1.14
2022-11-27T04:33:05.191Z,1.14
2022-11-27T04:35:32.092Z,1.11
2022-11-27T04:37:58.989Z,1.09
2022-11-27T04:40:25.900Z,1.05
2022-11-27T04:42:52.887Z,1.10
2022-11-27T04:45:20.004Z,1.07
2022-11-27T04:47:46.872Z,1.05
2022-11-27T04:50:13.755Z,1.05
2022-11-27T04:52:40.650Z,1.01
2022-11-27T04:55:08.125Z,0.95
2022-11-27T04:57:35.063Z,0.96
2022-11-27T05:00:02.130Z,0.95
2022-11-27T05:02:29.238Z,0.96
2022-11-27T05:04:56.224Z,0.94
2022-11-27T05:07:23.469Z,0.94
2022-11-27T05:09:51.203Z,0.93
2022-11-27T05:12:18.079Z,0.90
2022-11-27T05:14:44.926Z,0.89
2022-11-27T05:17:11.960Z,0.88
2022-11-27T05:19:38.944Z,0.84
2022-11-27T05:22:05.925Z,0.81
2022-11-27T05:24:32.932Z,0.78
2022-11-27T05:26:59.821Z,0.80
2022-11-27T05:29:27.127Z,0.81
2022-11-27T05:31:54.137Z,0.85
2022-11-27T05:34:21.364Z,0.83
2022-11-27T05:36:48.586Z,0.84
2022-11-27T05:39:15.522Z,0.82
2022-11-27T05:41:43.526Z,0.81
2022-11-27T05:44:14.693Z,0.79
2022-11-27T05:46:43.797Z,0.78
2022-11-27T05:49:15.965Z,0.76
2022-11-27T05:51:49.364Z,0.79
2022-11-27T05:54:17.954Z,0.77
2022-11-27T05:56:44.989Z,0.85
2022-11-27T05:59:12.785Z,0.87
2022-11-27T06:01:39.822Z,0.98
2022-11-27T06:04:06.762Z,1.00
2022-11-27T06:06:33.684Z,1.06
2022-11-27T06:09:00.959Z,1.11
2022-11-27T06:11:27.976Z,1.16
2022-11-27T06:13:54.909Z,1.17
2022-11-27T06:16:24.069Z,1.20
2022-11-27T06:18:53.314Z,1.28
2022-11-27T06:21:21.740Z,1.30
2022-11-27T06:23:49.151Z,1.29
2022-11-27T06:26:24.440Z,1.38
2022-11-27T06:28:51.878Z,1.43
2022-11-27T06:31:21.641Z,1.51
2022-11-27T06:33:50.296Z,1.56
2022-11-27T06:36:18.360Z,1.62
2022-11-27T06:38:46.466Z,1.64
2022-11-27T06:41:16.217Z,1.70
2022-11-27T06:43:43.698Z,1.72
2022-11-27T06:46:15.543Z,1.80
2022-11-27T06:48:44.212Z,1.82
2022-11-27T06:51:14.217Z,1.98
2022-11-27T06:53:41.122Z,2.07
2022-11-27T06:56:10.620Z,2.00
2022-11-27T06:58:38.428Z,2.06
2022-11-27T07:01:12.920Z,2.01
2022-11-27T07:03:40.050Z,2.03
2022-11-27T07:06:09.121Z,2.09
2022-11-27T07:08:36.697Z,2.09
2022-11-27T07:11:06.327Z,2.13
2022-11-27T07:13:33.697Z,2.13
2022-11-27T07:16:06.118Z,2.20
2022-11-27T07:18:39.545Z,2.30
2022-11-27T07:21:06.701Z,2.37
2022-11-27T07:23:33.711Z,2.46
2022-11-27T07:26:09.371Z,2.54
2022-11-27T07:28:36.765Z,2.63
2022-11-27T07:31:04.014Z,2.71
2022-11-27T07:33:31.705Z,2.71
2022-11-27T07:36:00.765Z,2.73
2022-11-27T07:38:28.012Z,2.82
2022-11-27T07:40:55.094Z,2.91
2022-11-27T07:43:22.081Z,2.95
2022-11-27T07:45:49.117Z,3.04
2022-11-27T07:48:16.117Z,3.10
2022-11-27T07:50:42.972Z,3.15
2022-11-27T07:53:10.071Z,3.22
2022-11-27T07:55:40.710Z,3.31
2022-11-27T07:58:08.479Z,3.28
2022-11-27T08:00:36.141Z,3.37
2022-11-27T08:03:03.731Z,3.39
2022-11-27T08:05:33.521Z,3.41
2022-11-27T08:08:01.581Z,3.41
2022-11-27T08:10:28.562Z,3.48
2022-11-27T08:12:55.391Z,3.50
2022-11-27T08:15:22.295Z,3.61
2022-11-27T08:17:49.163Z,3.65
2022-11-27T08:20:16.291Z,3.75
2022-11-27T08:22:43.213Z,3.81
2022-11-27T08:25:10.176Z,3.91
2022-11-27T08:27:37.085Z,4.07
2022-11-27T08:30:05.268Z,4.13
2022-11-27T08:32:32.615Z,4.09
2022-11-27T08:34:59.597Z,4.08
2022-11-27T08:37:26.531Z,4.09
2022-11-27T08:39:53.575Z,4.18
2022-11-27T08:42:20.565Z,4.31
2022-11-27T08:44:47.459Z,4.39
2022-11-27T08:47:15.667Z,4.55
2022-11-27T08:49:46.304Z,4.64
2022-11-27T08:52:13.779Z,4.69
2022-11-27T08:54:40.886Z,4.72
2022-11-27T08:57:07.968Z,4.73
2022-11-27T08:59:34.903Z,4.85
2022-11-27T09:02:01.805Z,4.93
2022-11-27T09:04:29.177Z,4.93
2022-11-27T09:06:58.757Z,5.00
2022-11-27T09:09:25.896Z,5.15
2022-11-27T09:11:55.176Z,5.15
2022-11-27T09:14:22.153Z,5.11
2022-11-27T09:16:49.298Z,5.40
2022-11-27T09:19:17.257Z,5.39
2022-11-27T09:21:44.281Z,5.25
2022-11-27T09:24:11.152Z,5.24
2022-11-27T09:26:39.284Z,5.50
2022-11-27T09:29:06.500Z,5.59
2022-11-27T09:31:33.474Z,5.56
2022-11-27T09:34:00.366Z,5.51
2022-11-27T09:36:27.449Z,5.52
2022-11-27T09:38:54.716Z,5.64
2022-11-27T09:41:42.373Z,5.84
2022-11-27T09:44:24.070Z,5.84
2022-11-27T10:17:21.632Z,5.87
2022-11-27T10:19:53.310Z,5.95
2022-11-27T10:22:32.510Z,6.21
2022-11-27T10:25:25.588Z,6.31
2022-11-27T10:28:10.394Z,6.21
2022-11-27T10:30:43.318Z,6.23
2022-11-27T10:33:18.041Z,6.24
2022-11-27T10:35:48.227Z,6.22
2022-11-27T10:38:22.471Z,6.31
2022-11-27T10:41:09.788Z,6.32
2022-11-27T10:43:39.112Z,6.24
2022-11-27T10:46:28.039Z,6.25
2022-11-27T10:48:54.989Z,6.28
2022-11-27T10:51:30.130Z,6.31
2022-11-27T10:53:59.483Z,6.36
2022-11-27T10:56:38.006Z,6.41
2022-11-27T10:59:32.831Z,6.41
2022-11-27T11:02:03.487Z,6.52
2022-11-27T11:04:38.033Z,6.64
2022-11-27T11:07:24.412Z,6.55
2022-11-27T11:09:52.326Z,6.73
2022-11-27T11:12:21.852Z,6.80
2022-11-27T11:14:53.044Z,6.69
2022-11-27T11:17:31.373Z,6.66
2022-11-27T11:19:58.428Z,6.60
2022-11-27T11:22:25.456Z,6.59
2022-11-27T11:24:53.799Z,6.63
2022-11-27T11:27:27.333Z,6.60
2022-11-27T11:30:00.108Z,6.66
2022-11-27T11:32:31.219Z,6.72
2022-11-27T11:35:03.065Z,6.84
2022-11-27T11:37:33.639Z,6.69
2022-11-27T11:40:20.560Z,6.66
2022-11-27T11:43:01.773Z,6.66
2022-11-27T11:45:32.820Z,6.50
2022-11-27T11:48:26.970Z,6.46
2022-11-27T11:51:08.439Z,6.43
2022-11-27T11:53:58.449Z,6.32
2022-11-27T11:56:33.143Z,6.37
2022-11-27T11:59:00.052Z,6.37
2022-11-27T12:01:43.706Z,6.42
2022-11-27T12:04:13.785Z,6.47
2022-11-27T12:07:11.466Z,6.51
2022-11-27T12:09:38.237Z,6.51
2022-11-27T12:12:30.580Z,6.41
2022-11-27T12:15:22.714Z,6.50
2022-11-27T12:18:01.249Z,6.49
2022-11-27T12:20:53.931Z,6.64
2022-11-27T12:23:35.901Z,6.69
2022-11-27T12:26:11.876Z,6.67
2022-11-27T12:29:27.855Z,6.70
2022-11-27T12:32:08.639Z,6.70
2022-11-27T12:34:51.736Z,6.66
2022-11-27T12:37:40.889Z,6.54
2022-11-27T12:40:35.616Z,6.56
2022-11-27T12:43:28.336Z,6.61
2022-11-27T12:46:15.213Z,6.58
2022-11-27T12:49:13.668Z,6.51
2022-11-27T12:51:43.271Z,6.44
2022-11-27T12:54:22.644Z,6.50
2022-11-27T12:56:57.972Z,6.48
2022-11-27T12:59:34.872Z,6.36
2022-11-27T13:02:18.704Z,6.40
2022-11-27T13:04:56.889Z,6.37
2022-11-27T13:07:47.894Z,6.29
2022-11-27T13:10:26.250Z,6.38
2022-11-27T13:12:56.298Z,6.32
2022-11-27T13:15:29.557Z,6.31
2022-11-27T13:18:41.500Z,6.19
2022-11-27T13:21:15.899Z,6.17
2022-11-27T13:23:43.145Z,6.13
2022-11-27T13:26:23.340Z,6.16
2022-11-27T13:28:58.573Z,6.08
2022-11-27T13:31:31.881Z,6.08
2022-11-27T13:34:03.416Z,6.06
2022-11-27T13:36:39.892Z,6.01
2022-11-27T13:39:07.529Z,6.03
2022-11-27T13:41:40.351Z,6.04
2022-11-27T13:44:25.458Z,6.04
2022-11-27T13:46:55.639Z,5.99
2022-11-27T13:49:30.643Z,6.00
2022-11-27T13:52:17.951Z,5.97
2022-11-27T13:55:02.045Z,5.91
2022-11-27T13:57:30.396Z,5.85
2022-11-27T14:00:04.160Z,5.77
2022-11-27T14:02:47.203Z,5.84
2022-11-27T14:05:17.570Z,5.78
2022-11-27T14:07:48.077Z,5.77
2022-11-27T14:10:16.313Z,5.72
2022-11-27T14:12:54.389Z,5.69
2022-11-27T14:15:24.636Z,5.66
2022-11-27T14:18:03.757Z,5.66
2022-11-27T14:20:33.166Z,5.61
2022-11-27T14:23:11.645Z,5.56
2022-11-27T14:25:40.857Z,5.59
2022-11-27T14:28:21.739Z,5.52
2022-11-27T14:30:51.451Z,5.50
2022-11-27T14:33:28.366Z,5.47
2022-11-27T14:35:57.978Z,5.42
2022-11-27T14:38:27.159Z,5.42
2022-11-27T14:41:06.803Z,5.41
2022-11-27T14:43:33.777Z,5.36
2022-11-27T14:46:01.973Z,5.39
2022-11-27T14:48:47.642Z,5.37
2022-11-27T14:51:18.132Z,5.35
2022-11-27T14:53:52.022Z,5.33
2022-11-27T14:56:19.312Z,5.36
2022-11-27T14:58:53.397Z,5.28
2022-11-27T15:01:27.073Z,5.25
2022-11-27T15:04:06.122Z,5.23
2022-11-27T15:06:46.585Z,5.21
2022-11-27T15:09:31.773Z,5.15
2022-11-27T15:12:18.261Z,5.09
2022-11-27T15:14:52.051Z,5.12
2022-11-27T15:17:26.538Z,5.13
2022-11-27T15:19:55.674Z,5.09
2022-11-27T15:22:23.454Z,5.08
2022-11-27T15:25:01.266Z,5.09
2022-11-27T15:27:31.630Z,5.06
2022-11-27T15:30:18.839Z,4.97
2022-11-27T15:32:51.253Z,4.94
2022-11-27T15:35:24.534Z,4.92
2022-11-27T15:37:51.952Z,4.87
2022-11-27T15:40:36.103Z,4.87
2022-11-27T15:43:10.597Z,4.78
2022-11-27T15:45:38.018Z,4.74
2022-11-27T15:48:05.067Z,4.76
2022-11-27T15:50:32.280Z,4.71
2022-11-27T15:53:01.090Z,4.68
2022-11-27T15:55:28.084Z,4.61
2022-11-27T15:57:55.066Z,4.60
2022-11-27T16:00:22.262Z,4.58
2022-11-27T16:02:49.291Z,4.56
2022-11-27T16:05:16.368Z,4.57
2022-11-27T16:07:43.343Z,4.50
2022-11-27T16:10:11.345Z,4.47
2022-11-27T16:12:39.189Z,4.49
2022-11-27T16:15:07.639Z,4.44
2022-11-27T16:17:35.196Z,4.44
2022-11-27T16:20:02.206Z,4.42
2022-11-27T16:22:29.130Z,4.39
2022-11-27T16:24:56.388Z,4.41
2022-11-27T16:27:23.426Z,4.35
2022-11-27T16:29:50.455Z,4.33
2022-11-27T16:32:17.468Z,4.30
2022-11-27T16:34:44.390Z,4.27
2022-11-27T16:37:18.079Z,4.28
2022-11-27T16:39:45.494Z,4.28
2022-11-27T16:42:13.045Z,4.30
2022-11-27T16:44:40.054Z,4.28
2022-11-27T16:47:07.332Z,4.25
2022-11-27T16:49:34.641Z,4.25
2022-11-27T16:52:02.106Z,4.31
2022-11-27T16:54:29.229Z,4.29
2022-11-27T16:56:56.649Z,4.29
2022-11-27T16:59:23.765Z,4.25
2022-11-27T17:01:50.672Z,4.25
2022-11-27T17:04:20.042Z,4.19
2022-11-27T17:06:48.642Z,4.13
2022-11-27T17:09:16.112Z,4.16
2022-11-27T17:11:45.655Z,4.12
2022-11-27T17:14:12.651Z,4.09
2022-11-27T17:16:41.676Z,4.10
2022-11-27T17:19:14.236Z,4.08
2022-11-27T17:21:42.081Z,4.09
2022-11-27T17:24:16.045Z,4.07
2022-11-27T17:26:46.157Z,3.98
2022-11-27T17:29:15.450Z,3.94
2022-11-27T17:31:42.822Z,3.94
2022-11-27T17:34:12.761Z,3.94
2022-11-27T17:36:42.229Z,3.92
2022-11-27T17:39:12.397Z,3.90
2022-11-27T17:41:40.766Z,3.88
2022-11-27T17:44:07.882Z,3.84
2022-11-27T17:46:36.391Z,3.84
2022-11-27T17:49:06.097Z,3.84
2022-11-27T17:51:35.259Z,3.83
2022-11-27T17:54:03.490Z,3.80
2022-11-27T17:56:33.300Z,3.75
2022-11-27T17:59:00.999Z,3.75
2022-11-27T18:01:30.264Z,3.71
2022-11-27T18:04:04.131Z,3.71
2022-11-27T18:06:32.605Z,3.69
2022-11-27T18:09:00.397Z,3.76
2022-11-27T18:11:30.092Z,3.66
2022-11-27T18:13:59.377Z,3.64
2022-11-27T18:16:34.200Z,3.66
2022-11-27T18:19:08.284Z,3.74
2022-11-27T18:21:36.530Z,3.68
2022-11-27T18:27:09.853Z,3.63
2022-11-27T18:29:39.751Z,3.64
2022-11-27T18:32:06.993Z,3.67
2022-11-27T18:34:34.352Z,3.64
2022-11-27T18:37:01.754Z,3.62
2022-11-27T18:39:28.952Z,3.60
2022-11-27T18:41:55.965Z,3.58
2022-11-27T18:44:23.038Z,3.55
2022-11-27T18:46:50.861Z,3.61
2022-11-27T18:49:18.522Z,3.58
2022-11-27T18:51:46.476Z,3.57
2022-11-27T18:54:13.468Z,3.58
2022-11-27T18:56:40.532Z,3.55
2022-11-27T18:59:09.066Z,3.55
2022-11-27T19:01:42.357Z,3.50
2022-11-27T19:04:11.338Z,3.60
2022-11-27T19:06:39.629Z,3.45
2022-11-27T19:09:06.855Z,3.41
2022-11-27T19:11:35.224Z,3.42
2022-11-27T19:14:04.077Z,3.38
2022-11-27T19:16:36.592Z,3.35
2022-11-27T19:19:05.031Z,3.34
2022-11-27T19:21:33.789Z,3.30
2022-11-27T19:24:03.442Z,3.27
2022-11-27T19:26:32.723Z,3.27
2022-11-27T19:29:02.733Z,3.27
2022-11-27T19:31:32.186Z,3.29
2022-11-27T19:34:02.288Z,3.34
2022-11-27T19:36:31.429Z,3.26
2022-11-27T19:39:01.739Z,3.26
2022-11-27T19:41:30.911Z,3.25
2022-11-27T19:44:12.885Z,3.24
2022-11-27T19:46:41.127Z,3.16
2022-11-27T19:49:13.622Z,3.06
2022-11-27T19:51:41.221Z,3.08
2022-11-27T19:54:12.725Z,3.03
2022-11-27T19:56:42.584Z,2.98
2022-11-27T19:59:10.857Z,2.90
2022-11-27T20:01:40.518Z,2.93
2022-11-27T20:04:11.157Z,2.86
2022-11-27T20:06:39.128Z,2.90
2022-11-27T20:09:06.965Z,2.85
2022-11-27T20:11:35.765Z,2.78
2022-11-27T20:14:05.632Z,2.74
2022-11-27T20:16:34.783Z,2.73
2022-11-27T20:19:05.718Z,2.68
2022-11-27T20:21:34.898Z,2.62
2022-11-27T20:24:04.166Z,2.62
2022-11-27T20:26:31.189Z,2.60
2022-11-27T20:28:59.540Z,2.61
2022-11-27T20:31:29.641Z,2.58
2022-11-27T20:34:00.859Z,2.52
2022-11-27T20:36:30.238Z,2.47
2022-11-27T20:39:00.052Z,2.42
2022-11-27T20:41:28.913Z,2.42
2022-11-27T20:43:58.942Z,2.41
2022-11-27T20:46:26.229Z,2.37
2022-11-27T20:48:54.384Z,2.37
2022-11-27T20:51:24.282Z,2.39
2022-11-27T20:53:53.679Z,2.34
2022-11-27T20:56:21.143Z,2.38
2022-11-27T20:58:48.395Z,2.33
2022-11-27T21:01:18.025Z,2.27
2022-11-27T21:03:46.293Z,2.25
2022-11-27T21:06:15.050Z,2.23
2022-11-27T21:08:42.739Z,2.16
2022-11-27T21:11:25.227Z,2.13
2022-11-27T21:13:56.114Z,2.10
2022-11-27T21:16:25.173Z,2.08
2022-11-27T21:18:53.812Z,2.05
2022-11-27T21:21:21.466Z,2.05
2022-11-27T21:23:49.245Z,2.03
2022-11-27T21:26:18.665Z,2.02
2022-11-27T21:28:46.555Z,1.95
2022-11-27T21:31:19.481Z,1.95
2022-11-27T21:33:52.003Z,1.92
2022-11-27T21:36:20.494Z,1.88
2022-11-27T21:38:47.601Z,1.91
2022-11-27T21:41:17.159Z,1.88
2022-11-27T21:43:45.669Z,1.86
2022-11-27T21:46:20.138Z,1.88
2022-11-27T21:48:49.606Z,1.87
2022-11-27T21:51:17.511Z,1.84
2022-11-27T21:53:49.162Z,1.81
2022-11-27T21:56:18.328Z,1.78
2022-11-27T21:58:45.900Z,1.80
2022-11-27T22:01:19.265Z,1.82
2022-11-27T22:03:51.506Z,1.82
2022-11-27T22:06:19.239Z,1.87
2022-11-27T22:08:49.309Z,1.86
2022-11-27T22:11:19.668Z,1.92
2022-11-27T22:13:47.083Z,1.94
2022-11-27T22:16:19.889Z,1.95
2022-11-27T22:18:48.195Z,1.96
2022-11-27T22:21:16.388Z,1.97
2022-11-27T22:23:44.004Z,1.95
2022-11-27T22:26:16.132Z,1.98
2022-11-27T22:28:43.642Z,1.94
2022-11-27T22:31:31.279Z,1.92
2022-11-27T22:33:58.849Z,1.94
2022-11-27T22:36:32.058Z,1.89
2022-11-27T22:39:02.209Z,1.96
2022-11-27T22:41:32.276Z,1.90
2022-11-27T22:44:00.426Z,1.88
2022-11-27T22:46:34.262Z,1.82
2022-11-27T22:49:05.558Z,1.78
2022-11-27T22:51:34.543Z,1.78
2022-11-27T22:54:02.831Z,1.79
2022-11-27T22:56:30.063Z,1.78
2022-11-27T22:59:30.051Z,1.72
2022-11-27T23:01:48.626Z,1.74
2022-11-27T23:04:16.593Z,1.71
2022-11-27T23:06:48.202Z,1.78
2022-11-27T23:09:17.849Z,1.77
2022-11-27T23:11:45.525Z,1.79
2022-11-27T23:14:12.448Z,1.75
2022-11-27T23:16:39.718Z,1.78
2022-11-27T23:19:07.058Z,1.83
2022-11-27T23:21:37.628Z,1.83
2022-11-27T23:24:05.684Z,1.86
2022-11-27T23:26:33.074Z,1.87
2022-11-27T23:29:00.075Z,1.86
2022-11-27T23:31:31.504Z,1.84
2022-11-27T23:34:01.889Z,1.94
2022-11-27T23:36:30.040Z,1.96
2022-11-27T23:38:58.898Z,1.97
2022-11-27T23:41:25.829Z,1.99
2022-11-27T23:43:53.906Z,1.92
2022-11-27T23:46:23.016Z,2.01
2022-11-27T23:48:50.009Z,2.02
2022-11-27T23:51:22.261Z,2.01
2022-11-27T23:53:50.469Z,1.99
2022-11-27T23:56:26.494Z,2.11
2022-11-27T23:58:55.501Z,2.05
